sensor_id;sensor_type;location;lat;lon;timestamp;pressure;altitude;pressure_sealevel;temperature;humidity
69570;BME280;56781;42.292;23.146;2023-07-02T00:00:08;94973.50;;;14.16;100.00
69570;BME280;56781;42.292;23.146;2023-07-02T00:02:36;94988.88;;;14.15;100.00
69570;BME280;56781;42.292;23.146;2023-07-02T00:05:05;94985.50;;;14.18;100.00
69570;BME280;56781;42.292;23.146;2023-07-02T00:07:33;94959.50;;;14.10;100.00
69570;BME280;56781;42.292;23.146;2023-07-02T00:10:03;94987.09;;;14.32;100.00
69570;BME280;56781;42.292;23.146;2023-07-02T00:12:30;94989.00;;;14.44;100.00
69570;BME280;56781;42.292;23.146;2023-07-02T00:14:58;94990.00;;;14.51;100.00
69570;BME280;56781;42.292;23.146;2023-07-02T00:17:25;94986.84;;;14.49;100.00
69570;BME280;56781;42.292;23.146;2023-07-02T00:19:52;94989.47;;;14.58;100.00
69570;BME280;56781;42.292;23.146;2023-07-02T00:22:20;94981.28;;;14.54;100.00
69570;BME280;56781;42.292;23.146;2023-07-02T00:24:48;94992.28;;;14.61;100.00
69570;BME280;56781;42.292;23.146;2023-07-02T00:27:17;94995.84;;;14.66;100.00
69570;BME280;56781;42.292;23.146;2023-07-02T00:29:44;95007.09;;;14.68;100.00
69570;BME280;56781;42.292;23.146;2023-07-02T00:32:11;95017.41;;;14.66;100.00
69570;BME280;56781;42.292;23.146;2023-07-02T00:34:38;95015.75;;;14.61;100.00
69570;BME280;56781;42.292;23.146;2023-07-02T00:37:06;95039.63;;;14.75;100.00
69570;BME280;56781;42.292;23.146;2023-07-02T00:39:33;95022.78;;;14.66;100.00
69570;BME280;56781;42.292;23.146;2023-07-02T00:42:03;95027.03;;;14.79;100.00
69570;BME280;56781;42.292;23.146;2023-07-02T00:44:31;95037.59;;;14.84;100.00
69570;BME280;56781;42.292;23.146;2023-07-02T00:46:58;95024.34;;;14.79;100.00
69570;BME280;56781;42.292;23.146;2023-07-02T00:49:26;95047.16;;;14.94;100.00
69570;BME280;56781;42.292;23.146;2023-07-02T00:51:54;95060.94;;;15.04;100.00
69570;BME280;56781;42.292;23.146;2023-07-02T00:54:22;95045.47;;;15.01;100.00
69570;BME280;56781;42.292;23.146;2023-07-02T00:56:49;95041.72;;;15.06;100.00
69570;BME280;56781;42.292;23.146;2023-07-02T00:59:17;95033.31;;;15.07;100.00
69570;BME280;56781;42.292;23.146;2023-07-02T01:01:44;95052.72;;;15.13;100.00
69570;BME280;56781;42.292;23.146;2023-07-02T01:04:17;95029.09;;;15.22;100.00
69570;BME280;56781;42.292;23.146;2023-07-02T01:06:45;95036.72;;;15.33;100.00
69570;BME280;56781;42.292;23.146;2023-07-02T01:09:12;95025.28;;;15.23;100.00
69570;BME280;56781;42.292;23.146;2023-07-02T01:11:46;95041.03;;;15.21;100.00
69570;BME280;56781;42.292;23.146;2023-07-02T01:14:25;95023.75;;;14.98;100.00
69570;BME280;56781;42.292;23.146;2023-07-02T01:16:54;95030.38;;;15.13;100.00
69570;BME280;56781;42.292;23.146;2023-07-02T01:22:11;95052.13;;;15.32;100.00
69570;BME280;56781;42.292;23.146;2023-07-02T01:24:39;95034.41;;;15.19;100.00
69570;BME280;56781;42.292;23.146;2023-07-02T01:27:07;95055.16;;;15.30;100.00
69570;BME280;56781;42.292;23.146;2023-07-02T01:29:36;95036.09;;;15.23;100.00
69570;BME280;56781;42.292;23.146;2023-07-02T01:32:04;95017.34;;;15.15;100.00
69570;BME280;56781;42.292;23.146;2023-07-02T01:34:32;95005.53;;;15.19;100.00
69570;BME280;56781;42.292;23.146;2023-07-02T01:36:59;95014.50;;;15.23;100.00
69570;BME280;56781;42.292;23.146;2023-07-02T01:39:26;95013.50;;;15.16;100.00
69570;BME280;56781;42.292;23.146;2023-07-02T01:41:55;95027.16;;;15.35;100.00
69570;BME280;56781;42.292;23.146;2023-07-02T01:44:22;95015.94;;;15.33;100.00
69570;BME280;56781;42.292;23.146;2023-07-02T01:46:49;95017.75;;;15.29;100.00
69570;BME280;56781;42.292;23.146;2023-07-02T01:49:20;95028.53;;;15.29;100.00
69570;BME280;56781;42.292;23.146;2023-07-02T01:51:51;95030.09;;;15.30;100.00
69570;BME280;56781;42.292;23.146;2023-07-02T01:54:19;95041.88;;;15.38;100.00
69570;BME280;56781;42.292;23.146;2023-07-02T01:56:46;95072.31;;;15.50;100.00
69570;BME280;56781;42.292;23.146;2023-07-02T01:59:14;95061.59;;;15.26;100.00
69570;BME280;56781;42.292;23.146;2023-07-02T02:01:41;95081.09;;;15.35;100.00
69570;BME280;56781;42.292;23.146;2023-07-02T02:04:10;95090.28;;;15.46;100.00
69570;BME280;56781;42.292;23.146;2023-07-02T02:06:38;95079.63;;;15.38;100.00
69570;BME280;56781;42.292;23.146;2023-07-02T02:09:06;95061.47;;;15.22;100.00
69570;BME280;56781;42.292;23.146;2023-07-02T02:11:37;95051.81;;;15.21;100.00
69570;BME280;56781;42.292;23.146;2023-07-02T02:14:04;95057.06;;;15.30;100.00
69570;BME280;56781;42.292;23.146;2023-07-02T02:16:32;95054.81;;;15.32;100.00
69570;BME280;56781;42.292;23.146;2023-07-02T02:19:00;95029.47;;;15.21;100.00
69570;BME280;56781;42.292;23.146;2023-07-02T02:21:28;95024.31;;;15.16;100.00
69570;BME280;56781;42.292;23.146;2023-07-02T02:23:55;95031.25;;;15.17;100.00
69570;BME280;56781;42.292;23.146;2023-07-02T02:26:22;95042.41;;;15.15;100.00
69570;BME280;56781;42.292;23.146;2023-07-02T02:28:52;95063.50;;;15.25;100.00
69570;BME280;56781;42.292;23.146;2023-07-02T02:31:19;95055.59;;;15.33;100.00
69570;BME280;56781;42.292;23.146;2023-07-02T02:33:46;95027.44;;;15.18;100.00
69570;BME280;56781;42.292;23.146;2023-07-02T02:36:13;95022.25;;;15.25;100.00
69570;BME280;56781;42.292;23.146;2023-07-02T02:38:41;94996.44;;;15.12;100.00
69570;BME280;56781;42.292;23.146;2023-07-02T02:41:08;94993.56;;;15.04;100.00
69570;BME280;56781;42.292;23.146;2023-07-02T02:43:35;94996.88;;;15.14;100.00
69570;BME280;56781;42.292;23.146;2023-07-02T02:46:02;94962.13;;;14.96;100.00
69570;BME280;56781;42.292;23.146;2023-07-02T02:48:29;94953.91;;;15.05;100.00
69570;BME280;56781;42.292;23.146;2023-07-02T02:50:56;94956.34;;;15.10;100.00
69570;BME280;56781;42.292;23.146;2023-07-02T02:53:23;94956.66;;;15.21;100.00
69570;BME280;56781;42.292;23.146;2023-07-02T02:55:51;94972.22;;;15.27;100.00
69570;BME280;56781;42.292;23.146;2023-07-02T02:58:18;94972.38;;;15.19;100.00
69570;BME280;56781;42.292;23.146;2023-07-02T03:00:45;94971.06;;;15.13;100.00
69570;BME280;56781;42.292;23.146;2023-07-02T03:03:13;94993.94;;;15.31;100.00
69570;BME280;56781;42.292;23.146;2023-07-02T03:05:40;94980.00;;;15.29;100.00
69570;BME280;56781;42.292;23.146;2023-07-02T03:08:08;94963.22;;;15.36;100.00
69570;BME280;56781;42.292;23.146;2023-07-02T03:10:35;94952.28;;;15.44;100.00
69570;BME280;56781;42.292;23.146;2023-07-02T03:13:02;94934.78;;;15.38;100.00
69570;BME280;56781;42.292;23.146;2023-07-02T03:15:29;94966.50;;;15.57;100.00
69570;BME280;56781;42.292;23.146;2023-07-02T03:17:57;94959.25;;;15.45;100.00
69570;BME280;56781;42.292;23.146;2023-07-02T03:20:24;94969.09;;;15.54;100.00
69570;BME280;56781;42.292;23.146;2023-07-02T03:22:52;94977.63;;;15.56;100.00
69570;BME280;56781;42.292;23.146;2023-07-02T03:25:19;94977.81;;;15.63;100.00
69570;BME280;56781;42.292;23.146;2023-07-02T03:27:46;94989.69;;;15.74;100.00
69570;BME280;56781;42.292;23.146;2023-07-02T03:30:13;94975.34;;;15.70;100.00
69570;BME280;56781;42.292;23.146;2023-07-02T03:32:41;94955.81;;;15.61;100.00
69570;BME280;56781;42.292;23.146;2023-07-02T03:35:08;94966.31;;;15.66;100.00
69570;BME280;56781;42.292;23.146;2023-07-02T03:37:35;94973.78;;;15.69;100.00
69570;BME280;56781;42.292;23.146;2023-07-02T03:40:02;94970.47;;;15.76;100.00
69570;BME280;56781;42.292;23.146;2023-07-02T03:42:32;94945.25;;;15.56;100.00
69570;BME280;56781;42.292;23.146;2023-07-02T03:44:59;94975.09;;;15.75;100.00
69570;BME280;56781;42.292;23.146;2023-07-02T03:47:27;94958.81;;;15.71;100.00
69570;BME280;56781;42.292;23.146;2023-07-02T03:49:54;94945.88;;;15.65;100.00
69570;BME280;56781;42.292;23.146;2023-07-02T03:52:21;94959.03;;;15.66;100.00
69570;BME280;56781;42.292;23.146;2023-07-02T03:54:48;94952.03;;;15.49;100.00
69570;BME280;56781;42.292;23.146;2023-07-02T03:57:15;94969.72;;;15.63;100.00
69570;BME280;56781;42.292;23.146;2023-07-02T03:59:42;94965.53;;;15.65;100.00
69570;BME280;56781;42.292;23.146;2023-07-02T04:02:09;94974.00;;;15.64;100.00
69570;BME280;56781;42.292;23.146;2023-07-02T04:04:37;94958.50;;;15.61;100.00
69570;BME280;56781;42.292;23.146;2023-07-02T04:07:04;94968.38;;;15.69;100.00
69570;BME280;56781;42.292;23.146;2023-07-02T04:09:31;94951.53;;;15.60;100.00
69570;BME280;56781;42.292;23.146;2023-07-02T04:12:00;94960.72;;;15.71;100.00
69570;BME280;56781;42.292;23.146;2023-07-02T04:14:28;94944.75;;;15.66;100.00
69570;BME280;56781;42.292;23.146;2023-07-02T04:16:55;94940.03;;;15.63;100.00
69570;BME280;56781;42.292;23.146;2023-07-02T04:19:22;94944.75;;;15.66;100.00
69570;BME280;56781;42.292;23.146;2023-07-02T04:21:49;94918.28;;;15.56;100.00
69570;BME280;56781;42.292;23.146;2023-07-02T04:24:17;94945.03;;;15.77;100.00
69570;BME280;56781;42.292;23.146;2023-07-02T04:26:44;94947.75;;;15.77;100.00
69570;BME280;56781;42.292;23.146;2023-07-02T04:29:31;94944.13;;;15.57;100.00
69570;BME280;56781;42.292;23.146;2023-07-02T04:31:58;94959.59;;;15.72;100.00
69570;BME280;56781;42.292;23.146;2023-07-02T04:34:26;94944.09;;;15.69;100.00
69570;BME280;56781;42.292;23.146;2023-07-02T04:36:53;94956.72;;;15.81;100.00
69570;BME280;56781;42.292;23.146;2023-07-02T04:39:20;94933.03;;;15.74;100.00
69570;BME280;56781;42.292;23.146;2023-07-02T04:41:47;94943.50;;;15.76;100.00
69570;BME280;56781;42.292;23.146;2023-07-02T04:44:19;94934.94;;;15.73;100.00
69570;BME280;56781;42.292;23.146;2023-07-02T04:46:48;94956.31;;;15.94;100.00
69570;BME280;56781;42.292;23.146;2023-07-02T04:49:15;94975.66;;;15.97;100.00
69570;BME280;56781;42.292;23.146;2023-07-02T04:51:42;94977.97;;;15.98;100.00
69570;BME280;56781;42.292;23.146;2023-07-02T04:54:10;94978.94;;;16.06;100.00
69570;BME280;56781;42.292;23.146;2023-07-02T04:56:37;94985.22;;;16.10;100.00
69570;BME280;56781;42.292;23.146;2023-07-02T04:59:04;94958.03;;;15.87;100.00
69570;BME280;56781;42.292;23.146;2023-07-02T05:01:31;94957.25;;;15.86;100.00
69570;BME280;56781;42.292;23.146;2023-07-02T05:03:58;94979.13;;;16.13;100.00
69570;BME280;56781;42.292;23.146;2023-07-02T05:06:25;94988.03;;;16.29;100.00
69570;BME280;56781;42.292;23.146;2023-07-02T05:08:52;94967.97;;;16.30;100.00
69570;BME280;56781;42.292;23.146;2023-07-02T05:11:19;94972.13;;;16.44;100.00
69570;BME280;56781;42.292;23.146;2023-07-02T05:13:47;94985.44;;;16.68;100.00
69570;BME280;56781;42.292;23.146;2023-07-02T05:16:14;94987.34;;;16.68;100.00
69570;BME280;56781;42.292;23.146;2023-07-02T05:18:41;94996.25;;;16.68;100.00
69570;BME280;56781;42.292;23.146;2023-07-02T05:21:09;95011.69;;;16.83;100.00
69570;BME280;56781;42.292;23.146;2023-07-02T05:23:36;95013.88;;;16.78;100.00
69570;BME280;56781;42.292;23.146;2023-07-02T05:26:03;95017.81;;;16.80;100.00
69570;BME280;56781;42.292;23.146;2023-07-02T05:28:30;95011.88;;;16.75;100.00
69570;BME280;56781;42.292;23.146;2023-07-02T05:30:57;95006.78;;;16.73;100.00
69570;BME280;56781;42.292;23.146;2023-07-02T05:33:24;94997.22;;;16.60;100.00
69570;BME280;56781;42.292;23.146;2023-07-02T05:35:51;94991.22;;;16.51;100.00
69570;BME280;56781;42.292;23.146;2023-07-02T05:38:19;94975.78;;;16.51;100.00
69570;BME280;56781;42.292;23.146;2023-07-02T05:40:46;94990.25;;;16.59;100.00
69570;BME280;56781;42.292;23.146;2023-07-02T05:43:13;95002.81;;;16.67;100.00
69570;BME280;56781;42.292;23.146;2023-07-02T05:45:41;94985.63;;;16.59;100.00
69570;BME280;56781;42.292;23.146;2023-07-02T05:48:08;95005.00;;;16.77;100.00
69570;BME280;56781;42.292;23.146;2023-07-02T05:50:35;95001.59;;;16.80;100.00
69570;BME280;56781;42.292;23.146;2023-07-02T05:53:02;95014.84;;;16.86;100.00
69570;BME280;56781;42.292;23.146;2023-07-02T05:55:29;94974.34;;;16.73;100.00
69570;BME280;56781;42.292;23.146;2023-07-02T05:57:56;95006.59;;;16.98;100.00
69570;BME280;56781;42.292;23.146;2023-07-02T06:00:28;94993.50;;;17.00;100.00
69570;BME280;56781;42.292;23.146;2023-07-02T06:02:56;95008.19;;;17.18;100.00
69570;BME280;56781;42.292;23.146;2023-07-02T06:05:23;94986.84;;;17.13;100.00
69570;BME280;56781;42.292;23.146;2023-07-02T06:07:50;94986.41;;;17.31;100.00
69570;BME280;56781;42.292;23.146;2023-07-02T06:10:17;95019.69;;;17.70;100.00
69570;BME280;56781;42.292;23.146;2023-07-02T06:12:45;95020.69;;;17.81;100.00
69570;BME280;56781;42.292;23.146;2023-07-02T06:15:12;94993.66;;;17.65;100.00
69570;BME280;56781;42.292;23.146;2023-07-02T06:17:39;95008.69;;;17.82;100.00
69570;BME280;56781;42.292;23.146;2023-07-02T06:20:07;94993.91;;;17.99;100.00
69570;BME280;56781;42.292;23.146;2023-07-02T06:22:34;95006.53;;;18.11;100.00
69570;BME280;56781;42.292;23.146;2023-07-02T06:25:01;94993.22;;;18.02;100.00
69570;BME280;56781;42.292;23.146;2023-07-02T06:27:31;95006.72;;;18.22;100.00
69570;BME280;56781;42.292;23.146;2023-07-02T06:29:58;95012.84;;;18.19;100.00
69570;BME280;56781;42.292;23.146;2023-07-02T06:32:25;94998.69;;;18.29;100.00
69570;BME280;56781;42.292;23.146;2023-07-02T06:34:52;95004.22;;;18.36;100.00
69570;BME280;56781;42.292;23.146;2023-07-02T06:37:19;94977.66;;;18.45;100.00
69570;BME280;56781;42.292;23.146;2023-07-02T06:39:46;94986.31;;;18.54;100.00
69570;BME280;56781;42.292;23.146;2023-07-02T06:42:13;95002.06;;;18.72;100.00
69570;BME280;56781;42.292;23.146;2023-07-02T06:44:41;94985.31;;;18.89;100.00
69570;BME280;56781;42.292;23.146;2023-07-02T06:47:08;94999.97;;;19.41;100.00
69570;BME280;56781;42.292;23.146;2023-07-02T06:49:36;94979.88;;;19.83;100.00
69570;BME280;56781;42.292;23.146;2023-07-02T06:52:03;94991.22;;;19.59;100.00
69570;BME280;56781;42.292;23.146;2023-07-02T06:54:30;94997.88;;;19.65;100.00
69570;BME280;56781;42.292;23.146;2023-07-02T06:56:57;94975.34;;;19.61;100.00
69570;BME280;56781;42.292;23.146;2023-07-02T06:59:24;94980.75;;;19.57;100.00
69570;BME280;56781;42.292;23.146;2023-07-02T07:01:51;95000.03;;;19.48;100.00
69570;BME280;56781;42.292;23.146;2023-07-02T07:04:19;94996.09;;;19.46;100.00
69570;BME280;56781;42.292;23.146;2023-07-02T07:06:46;95010.84;;;19.45;100.00
69570;BME280;56781;42.292;23.146;2023-07-02T07:09:13;95011.63;;;19.45;100.00
69570;BME280;56781;42.292;23.146;2023-07-02T07:11:40;95001.06;;;19.37;100.00
69570;BME280;56781;42.292;23.146;2023-07-02T07:14:07;95007.56;;;19.32;100.00
69570;BME280;56781;42.292;23.146;2023-07-02T07:16:34;95002.97;;;19.33;100.00
69570;BME280;56781;42.292;23.146;2023-07-02T07:19:01;95020.22;;;19.51;100.00
69570;BME280;56781;42.292;23.146;2023-07-02T07:21:28;95016.44;;;19.59;100.00
69570;BME280;56781;42.292;23.146;2023-07-02T07:23:56;95001.81;;;19.67;100.00
69570;BME280;56781;42.292;23.146;2023-07-02T07:26:23;94999.69;;;19.84;100.00
69570;BME280;56781;42.292;23.146;2023-07-02T07:28:50;95010.72;;;19.98;100.00
69570;BME280;56781;42.292;23.146;2023-07-02T07:31:17;95007.56;;;19.92;100.00
69570;BME280;56781;42.292;23.146;2023-07-02T07:33:44;95008.84;;;20.06;100.00
69570;BME280;56781;42.292;23.146;2023-07-02T07:36:11;95011.56;;;20.06;100.00
69570;BME280;56781;42.292;23.146;2023-07-02T07:38:38;95022.06;;;20.07;100.00
69570;BME280;56781;42.292;23.146;2023-07-02T07:41:05;95020.16;;;20.11;100.00
69570;BME280;56781;42.292;23.146;2023-07-02T07:43:33;95000.94;;;19.93;100.00
69570;BME280;56781;42.292;23.146;2023-07-02T07:46:00;95008.59;;;20.22;100.00
69570;BME280;56781;42.292;23.146;2023-07-02T07:48:28;95024.94;;;20.25;100.00
69570;BME280;56781;42.292;23.146;2023-07-02T07:50:55;94993.66;;;20.01;100.00
69570;BME280;56781;42.292;23.146;2023-07-02T07:53:22;94991.06;;;20.15;100.00
69570;BME280;56781;42.292;23.146;2023-07-02T07:55:49;95010.09;;;20.60;100.00
69570;BME280;56781;42.292;23.146;2023-07-02T07:58:16;94993.78;;;20.60;100.00
69570;BME280;56781;42.292;23.146;2023-07-02T08:00:43;95014.66;;;20.93;100.00
69570;BME280;56781;42.292;23.146;2023-07-02T08:03:10;95000.31;;;20.52;100.00
69570;BME280;56781;42.292;23.146;2023-07-02T08:05:37;94985.09;;;20.44;100.00
69570;BME280;56781;42.292;23.146;2023-07-02T08:08:04;95013.38;;;20.35;100.00
69570;BME280;56781;42.292;23.146;2023-07-02T08:10:31;95006.38;;;20.34;100.00
69570;BME280;56781;42.292;23.146;2023-07-02T08:12:58;94996.44;;;20.49;100.00
69570;BME280;56781;42.292;23.146;2023-07-02T08:15:25;95014.41;;;20.61;100.00
69570;BME280;56781;42.292;23.146;2023-07-02T08:17:52;95011.44;;;20.77;100.00
69570;BME280;56781;42.292;23.146;2023-07-02T08:20:21;95009.41;;;20.70;100.00
69570;BME280;56781;42.292;23.146;2023-07-02T08:22:48;94989.44;;;20.52;100.00
69570;BME280;56781;42.292;23.146;2023-07-02T08:25:18;95001.59;;;20.65;100.00
69570;BME280;56781;42.292;23.146;2023-07-02T08:27:45;94989.09;;;20.57;100.00
69570;BME280;56781;42.292;23.146;2023-07-02T08:30:12;95010.41;;;20.51;100.00
69570;BME280;56781;42.292;23.146;2023-07-02T08:32:39;95014.19;;;20.36;100.00
69570;BME280;56781;42.292;23.146;2023-07-02T08:35:07;95000.97;;;20.38;100.00
69570;BME280;56781;42.292;23.146;2023-07-02T08:37:34;95010.03;;;20.53;100.00
69570;BME280;56781;42.292;23.146;2023-07-02T08:40:00;95021.81;;;20.64;100.00
69570;BME280;56781;42.292;23.146;2023-07-02T08:42:28;94981.56;;;20.36;100.00
69570;BME280;56781;42.292;23.146;2023-07-02T08:44:59;94978.63;;;20.55;100.00
69570;BME280;56781;42.292;23.146;2023-07-02T08:47:26;95016.97;;;20.95;100.00
69570;BME280;56781;42.292;23.146;2023-07-02T08:49:54;95001.47;;;21.06;100.00
69570;BME280;56781;42.292;23.146;2023-07-02T08:52:21;94995.59;;;20.97;100.00
69570;BME280;56781;42.292;23.146;2023-07-02T08:54:49;95005.09;;;21.24;100.00
69570;BME280;56781;42.292;23.146;2023-07-02T08:57:16;94989.09;;;21.12;100.00
69570;BME280;56781;42.292;23.146;2023-07-02T08:59:43;95002.41;;;21.32;100.00
69570;BME280;56781;42.292;23.146;2023-07-02T09:02:10;94987.91;;;21.10;100.00
69570;BME280;56781;42.292;23.146;2023-07-02T09:04:37;94992.69;;;21.31;100.00
69570;BME280;56781;42.292;23.146;2023-07-02T09:07:05;94995.38;;;21.23;100.00
69570;BME280;56781;42.292;23.146;2023-07-02T09:09:34;94995.78;;;21.29;100.00
69570;BME280;56781;42.292;23.146;2023-07-02T09:12:30;94983.72;;;21.30;100.00
69570;BME280;56781;42.292;23.146;2023-07-02T09:15:01;94992.84;;;21.56;100.00
69570;BME280;56781;42.292;23.146;2023-07-02T09:17:31;94972.88;;;21.34;100.00
69570;BME280;56781;42.292;23.146;2023-07-02T09:20:01;94989.66;;;21.43;100.00
69570;BME280;56781;42.292;23.146;2023-07-02T09:22:28;94977.59;;;21.44;100.00
69570;BME280;56781;42.292;23.146;2023-07-02T09:24:59;94989.75;;;21.68;100.00
69570;BME280;56781;42.292;23.146;2023-07-02T09:27:40;94987.88;;;22.01;100.00
69570;BME280;56781;42.292;23.146;2023-07-02T09:30:12;94982.44;;;22.11;97.51
69570;BME280;56781;42.292;23.146;2023-07-02T09:32:44;94990.97;;;21.92;98.16
69570;BME280;56781;42.292;23.146;2023-07-02T09:35:12;94994.09;;;21.80;97.51
69570;BME280;56781;42.292;23.146;2023-07-02T09:37:43;94983.56;;;21.82;100.00
69570;BME280;56781;42.292;23.146;2023-07-02T09:40:10;94995.59;;;21.74;100.00
69570;BME280;56781;42.292;23.146;2023-07-02T09:42:39;95001.81;;;21.71;98.01
69570;BME280;56781;42.292;23.146;2023-07-02T09:45:10;94982.75;;;21.71;99.12
69570;BME280;56781;42.292;23.146;2023-07-02T09:47:43;95005.88;;;22.27;97.94
69570;BME280;56781;42.292;23.146;2023-07-02T09:50:14;94987.97;;;22.26;97.74
69570;BME280;56781;42.292;23.146;2023-07-02T09:52:44;94963.72;;;21.96;93.85
69570;BME280;56781;42.292;23.146;2023-07-02T09:55:14;94964.56;;;22.18;94.88
69570;BME280;56781;42.292;23.146;2023-07-02T09:57:43;94993.81;;;22.42;96.81
69570;BME280;56781;42.292;23.146;2023-07-02T10:00:11;94996.53;;;22.35;96.74
69570;BME280;56781;42.292;23.146;2023-07-02T10:02:38;94968.50;;;22.56;95.47
69570;BME280;56781;42.292;23.146;2023-07-02T10:05:05;94978.56;;;23.16;92.16
69570;BME280;56781;42.292;23.146;2023-07-02T10:07:33;94966.63;;;23.77;92.45
69570;BME280;56781;42.292;23.146;2023-07-02T10:10:00;94963.19;;;24.32;93.85
69570;BME280;56781;42.292;23.146;2023-07-02T10:12:29;94958.41;;;24.47;89.95
69570;BME280;56781;42.292;23.146;2023-07-02T10:14:58;94962.88;;;24.19;88.12
69570;BME280;56781;42.292;23.146;2023-07-02T10:17:29;94939.22;;;23.91;89.63
69570;BME280;56781;42.292;23.146;2023-07-02T10:20:05;94943.72;;;23.42;92.20
69570;BME280;56781;42.292;23.146;2023-07-02T10:22:44;94955.47;;;23.42;91.62
69570;BME280;56781;42.292;23.146;2023-07-02T10:25:11;94962.06;;;23.49;90.27
69570;BME280;56781;42.292;23.146;2023-07-02T10:27:39;94950.66;;;23.75;89.37
69570;BME280;56781;42.292;23.146;2023-07-02T10:30:08;94934.13;;;23.97;90.13
69570;BME280;56781;42.292;23.146;2023-07-02T10:32:37;94926.38;;;24.44;91.00
69570;BME280;56781;42.292;23.146;2023-07-02T10:35:15;94937.50;;;24.67;84.83
69570;BME280;56781;42.292;23.146;2023-07-02T10:37:43;94910.53;;;24.66;85.15
69570;BME280;56781;42.292;23.146;2023-07-02T10:40:11;94910.06;;;24.26;84.11
69570;BME280;56781;42.292;23.146;2023-07-02T10:42:50;94897.38;;;23.98;85.34
69570;BME280;56781;42.292;23.146;2023-07-02T10:45:18;94928.16;;;24.09;85.73
69570;BME280;56781;42.292;23.146;2023-07-02T10:47:46;94929.09;;;23.84;86.90
69570;BME280;56781;42.292;23.146;2023-07-02T10:50:22;94937.22;;;23.99;90.33
69570;BME280;56781;42.292;23.146;2023-07-02T10:52:50;94933.13;;;23.62;85.79
69570;BME280;56781;42.292;23.146;2023-07-02T10:55:22;94933.09;;;23.73;87.68
69570;BME280;56781;42.292;23.146;2023-07-02T10:57:51;94925.47;;;24.02;86.21
69570;BME280;56781;42.292;23.146;2023-07-02T11:00:29;94923.38;;;24.20;83.49
69570;BME280;56781;42.292;23.146;2023-07-02T11:02:56;94915.97;;;24.21;86.72
69570;BME280;56781;42.292;23.146;2023-07-02T11:05:23;94922.91;;;24.32;84.28
69570;BME280;56781;42.292;23.146;2023-07-02T11:07:54;94902.53;;;24.41;86.34
69570;BME280;56781;42.292;23.146;2023-07-02T11:10:23;94895.53;;;24.81;83.20
69570;BME280;56781;42.292;23.146;2023-07-02T11:12:51;94903.75;;;25.15;83.64
69570;BME280;56781;42.292;23.146;2023-07-02T11:15:19;94901.22;;;25.32;84.04
69570;BME280;56781;42.292;23.146;2023-07-02T11:17:46;94907.00;;;25.41;82.88
69570;BME280;56781;42.292;23.146;2023-07-02T11:20:14;94889.91;;;25.60;83.20
69570;BME280;56781;42.292;23.146;2023-07-02T11:22:42;94898.19;;;25.53;84.00
69570;BME280;56781;42.292;23.146;2023-07-02T11:25:15;94894.56;;;25.33;84.84
69570;BME280;56781;42.292;23.146;2023-07-02T11:27:42;94903.44;;;25.44;81.20
69570;BME280;56781;42.292;23.146;2023-07-02T11:30:10;94888.75;;;24.93;78.41
69570;BME280;56781;42.292;23.146;2023-07-02T11:35:16;94881.91;;;25.08;76.38
69570;BME280;56781;42.292;23.146;2023-07-02T11:37:43;94895.13;;;25.13;79.92
69570;BME280;56781;42.292;23.146;2023-07-02T11:40:11;94879.03;;;24.85;81.15
69570;BME280;56781;42.292;23.146;2023-07-02T11:42:38;94879.53;;;25.10;83.09
69570;BME280;56781;42.292;23.146;2023-07-02T11:45:06;94891.53;;;25.24;86.72
69570;BME280;56781;42.292;23.146;2023-07-02T11:47:33;94887.41;;;25.05;84.73
69570;BME280;56781;42.292;23.146;2023-07-02T11:50:00;94873.84;;;24.56;80.28
69570;BME280;56781;42.292;23.146;2023-07-02T11:52:41;94865.97;;;24.65;84.13
69570;BME280;56781;42.292;23.146;2023-07-02T11:55:08;94885.88;;;25.04;84.39
69570;BME280;56781;42.292;23.146;2023-07-02T11:57:36;94879.19;;;25.05;83.00
69570;BME280;56781;42.292;23.146;2023-07-02T12:00:03;94881.50;;;24.75;86.80
69570;BME280;56781;42.292;23.146;2023-07-02T12:02:30;94902.72;;;24.64;89.72
69570;BME280;56781;42.292;23.146;2023-07-02T12:04:57;94886.88;;;24.41;93.57
69570;BME280;56781;42.292;23.146;2023-07-02T12:07:25;94896.75;;;24.28;96.57
69570;BME280;56781;42.292;23.146;2023-07-02T12:09:52;94889.09;;;24.08;100.00
69570;BME280;56781;42.292;23.146;2023-07-02T12:12:19;94891.63;;;23.85;100.00
69570;BME280;56781;42.292;23.146;2023-07-02T12:14:46;94895.56;;;23.77;100.00
69570;BME280;56781;42.292;23.146;2023-07-02T12:17:13;94908.44;;;23.83;100.00
69570;BME280;56781;42.292;23.146;2023-07-02T12:19:40;94889.38;;;23.73;100.00
69570;BME280;56781;42.292;23.146;2023-07-02T12:22:07;94889.34;;;23.76;100.00
69570;BME280;56781;42.292;23.146;2023-07-02T12:24:34;94890.00;;;23.91;100.00
69570;BME280;56781;42.292;23.146;2023-07-02T12:27:01;94884.44;;;24.02;100.00
69570;BME280;56781;42.292;23.146;2023-07-02T12:29:28;94876.59;;;24.11;100.00
69570;BME280;56781;42.292;23.146;2023-07-02T12:31:55;94890.44;;;24.80;100.00
69570;BME280;56781;42.292;23.146;2023-07-02T12:34:22;94874.19;;;24.99;90.01
69570;BME280;56781;42.292;23.146;2023-07-02T12:36:49;94884.34;;;24.99;88.08
69570;BME280;56781;42.292;23.146;2023-07-02T12:39:16;94862.03;;;24.66;92.45
69570;BME280;56781;42.292;23.146;2023-07-02T12:41:46;94861.06;;;24.84;81.44
69570;BME280;56781;42.292;23.146;2023-07-02T12:44:13;94858.41;;;24.76;86.17
69570;BME280;56781;42.292;23.146;2023-07-02T12:46:41;94866.44;;;24.91;86.20
69570;BME280;56781;42.292;23.146;2023-07-02T12:49:08;94867.38;;;24.77;89.50
69570;BME280;56781;42.292;23.146;2023-07-02T12:51:35;94871.53;;;24.54;84.37